Atkins, Virginia
Current Conditions -  °F | °C
As of 5:55 PM on Thursday 20 Nov 2014 (Local Time) from KMKJ Reporting Station
Clear Clear  
Wind Chill: 31°   Ceiling: Unl
Heat Index: 40°   Visibility: 10mi
Dew Point: 19°   Wind: 17mph
Humidity: 43%   Direction: 270°W
Pressure: 30.04"   Gusts: 28mph
Location:  36.87°N, 81.4°W
Report Text: KMKJ 202255Z AUTO 27015G24KT 10SM CLR 05/M07 A3004 RMK AO2 T00451072
Loading
Personal Weather Stations






























Interactive Weather Map New forecast layout! Learn more

10-Day Weather Forecast

Advertisements
Track Severe Weather on mobile